createdAt,value
2019-04-30T00:00:34.715Z,24.30
2019-04-30T00:01:32.871Z,23.80
2019-04-30T00:02:38.343Z,24.30
2019-04-30T00:03:31.772Z,25.00
2019-04-30T00:04:37.255Z,23.50
2019-04-30T00:05:31.556Z,23.80
2019-04-30T00:06:34.575Z,24.40
2019-04-30T00:07:31.362Z,24.30
2019-04-30T00:08:35.552Z,24.60
2019-04-30T00:09:31.275Z,24.10
2019-04-30T00:10:37.034Z,23.90
2019-04-30T00:11:31.081Z,24.10
2019-04-30T00:12:35.368Z,24.50
2019-04-30T00:13:30.854Z,23.10
2019-04-30T00:14:37.241Z,24.10
2019-04-30T00:15:30.663Z,24.80
2019-04-30T00:16:31.068Z,23.90
2019-04-30T00:17:30.609Z,22.80
2019-04-30T00:18:30.824Z,24.70
2019-04-30T00:19:30.419Z,24.00
2019-04-30T00:20:34.606Z,24.40
2019-04-30T00:21:30.229Z,23.90
2019-04-30T00:22:33.941Z,23.90
2019-04-30T00:23:30.941Z,23.70
2019-04-30T00:24:29.923Z,23.90
2019-04-30T00:25:30.867Z,25.60
2019-04-30T00:26:29.758Z,23.90
2019-04-30T00:27:30.327Z,24.50
2019-04-30T00:28:29.599Z,24.40
2019-04-30T00:29:31.030Z,24.50
2019-04-30T00:30:29.469Z,23.70
2019-04-30T00:31:29.340Z,24.50
2019-04-30T00:32:29.259Z,24.40
2019-04-30T00:33:29.216Z,24.60
2019-04-30T00:34:30.839Z,24.20
2019-04-30T00:35:29.012Z,25.20
2019-04-30T00:36:33.991Z,25.20
2019-04-30T00:37:28.841Z,26.20
2019-04-30T00:38:29.472Z,25.60
2019-04-30T00:39:28.711Z,25.60
2019-04-30T00:40:30.084Z,25.20
2019-04-30T00:41:30.269Z,26.40
2019-04-30T00:42:28.911Z,26.00
2019-04-30T00:43:29.389Z,26.10
2019-04-30T00:44:28.568Z,25.20
2019-04-30T00:45:28.243Z,25.60
2019-04-30T00:46:29.431Z,26.20
2019-04-30T00:47:28.051Z,27.30
2019-04-30T00:48:31.237Z,26.00
2019-04-30T00:49:35.847Z,25.60
2019-04-30T00:50:29.075Z,27.80
2019-04-30T00:51:27.775Z,27.60
2019-04-30T00:52:29.433Z,27.10
2019-04-30T00:53:27.532Z,28.00
2019-04-30T00:54:30.675Z,26.90
2019-04-30T00:55:27.355Z,28.10
2019-04-30T00:56:28.319Z,27.80
2019-04-30T00:57:27.301Z,27.50
2019-04-30T00:58:30.198Z,29.40
2019-04-30T00:59:27.018Z,27.60
2019-04-30T01:00:29.624Z,28.30
2019-04-30T01:01:26.861Z,27.30
2019-04-30T01:02:31.767Z,26.30
2019-04-30T01:03:26.767Z,28.70
2019-04-30T01:04:28.098Z,28.10
2019-04-30T01:05:27.065Z,29.40
2019-04-30T01:06:28.624Z,29.80
2019-04-30T01:07:26.581Z,30.30
2019-04-30T01:08:28.549Z,30.40
2019-04-30T01:09:26.258Z,30.30
2019-04-30T01:10:28.279Z,30.40
2019-04-30T01:11:26.056Z,31.40
2019-04-30T01:12:30.977Z,31.00
2019-04-30T01:13:25.880Z,29.70
2019-04-30T01:14:28.192Z,29.90
2019-04-30T01:15:25.789Z,30.60
2019-04-30T01:16:30.180Z,31.00
2019-04-30T01:17:25.539Z,30.60
2019-04-30T01:18:28.597Z,30.90
2019-04-30T01:19:30.011Z,31.50
2019-04-30T01:20:31.042Z,32.70
2019-04-30T01:21:25.319Z,31.40
2019-04-30T01:22:28.021Z,31.20
2019-04-30T01:23:25.041Z,32.00
2019-04-30T01:24:28.378Z,30.50
2019-04-30T01:25:24.877Z,35.00
2019-04-30T01:26:29.641Z,32.90
2019-04-30T01:27:24.713Z,32.50
2019-04-30T01:28:24.647Z,33.70
2019-04-30T01:29:24.564Z,33.70
2019-04-30T01:30:24.596Z,33.90
2019-04-30T01:31:24.383Z,33.90
2019-04-30T01:32:24.371Z,34.80
2019-04-30T01:33:28.429Z,32.30
2019-04-30T01:34:24.209Z,33.40
2019-04-30T01:35:28.278Z,33.30
2019-04-30T01:36:23.985Z,32.80
2019-04-30T01:37:28.289Z,32.90
2019-04-30T01:38:24.817Z,32.80
2019-04-30T01:39:27.689Z,34.40
2019-04-30T01:40:23.704Z,33.00
2019-04-30T01:41:27.471Z,33.70
2019-04-30T01:42:23.519Z,32.80
2019-04-30T01:43:31.711Z,34.10
2019-04-30T01:44:23.363Z,33.60
2019-04-30T01:45:27.551Z,34.60
2019-04-30T01:46:23.236Z,34.30
2019-04-30T01:47:27.694Z,34.70
2019-04-30T01:48:22.974Z,35.20
2019-04-30T01:49:25.628Z,34.40
2019-04-30T01:50:22.811Z,35.00
2019-04-30T01:51:22.736Z,33.90
2019-04-30T01:52:22.696Z,34.50
2019-04-30T01:53:22.561Z,34.90
2019-04-30T01:54:24.399Z,34.90
2019-04-30T01:55:23.506Z,35.90
2019-04-30T01:56:22.314Z,35.40
2019-04-30T01:57:22.233Z,35.70
2019-04-30T01:58:22.196Z,36.60
2019-04-30T01:59:22.079Z,36.20
2019-04-30T02:00:21.985Z,36.00
2019-04-30T02:01:22.012Z,36.00
2019-04-30T02:02:21.819Z,36.40
2019-04-30T02:03:21.738Z,37.30
2019-04-30T02:04:21.757Z,36.60
2019-04-30T02:05:21.571Z,36.40
2019-04-30T02:06:21.488Z,37.10
2019-04-30T02:07:29.429Z,36.00
2019-04-30T02:08:21.325Z,35.80
2019-04-30T02:09:21.257Z,36.40
2019-04-30T02:10:21.257Z,37.70
2019-04-30T02:11:21.079Z,36.30
2019-04-30T02:12:21.861Z,36.90
2019-04-30T02:13:20.973Z,35.60
2019-04-30T02:14:20.839Z,36.20
2019-04-30T02:15:20.782Z,36.70
2019-04-30T02:16:21.166Z,36.90
2019-04-30T02:17:20.693Z,38.30
2019-04-30T02:18:20.508Z,37.50
2019-04-30T02:19:20.431Z,37.00
2019-04-30T02:20:28.686Z,36.90
2019-04-30T02:21:20.249Z,37.30
2019-04-30T02:22:20.177Z,35.90
2019-04-30T02:23:20.092Z,36.60
2019-04-30T02:24:20.014Z,36.50
2019-04-30T02:25:19.919Z,36.70
2019-04-30T02:26:20.853Z,37.10
2019-04-30T02:27:21.595Z,37.30
2019-04-30T02:28:19.672Z,36.80
2019-04-30T02:29:19.680Z,36.40
2019-04-30T02:30:20.849Z,37.10
2019-04-30T02:31:22.992Z,37.10
2019-04-30T02:32:20.847Z,37.30
2019-04-30T02:33:20.111Z,38.70
2019-04-30T02:34:21.763Z,36.00
2019-04-30T02:35:19.513Z,37.20
2019-04-30T02:36:19.875Z,37.50
2019-04-30T02:37:21.084Z,37.00
2019-04-30T02:38:20.164Z,37.30
2019-04-30T02:39:20.404Z,38.40
2019-04-30T02:40:20.204Z,37.80
2019-04-30T02:41:19.361Z,37.30
2019-04-30T02:42:20.246Z,37.40
2019-04-30T02:43:20.379Z,38.40
2019-04-30T02:44:19.712Z,38.20
2019-04-30T02:45:19.824Z,37.60
2019-04-30T02:46:19.232Z,39.20
2019-04-30T02:47:20.259Z,37.20
2019-04-30T02:48:19.408Z,40.40
2019-04-30T02:49:20.184Z,41.00
2019-04-30T02:50:22.269Z,39.30
2019-04-30T02:51:20.099Z,40.10
2019-04-30T02:52:19.594Z,39.60
2019-04-30T02:53:19.909Z,38.80
2019-04-30T02:54:22.959Z,39.50
2019-04-30T02:55:19.455Z,39.00
2019-04-30T02:56:20.088Z,39.40
2019-04-30T02:57:22.860Z,39.30
2019-04-30T02:58:20.817Z,40.30
2019-04-30T02:59:17.126Z,39.80
2019-04-30T03:00:20.017Z,40.60
2019-04-30T03:01:16.952Z,40.00
2019-04-30T03:02:19.449Z,39.80
2019-04-30T03:03:16.789Z,41.20
2019-04-30T03:04:19.421Z,40.10
2019-04-30T03:05:16.611Z,41.00
2019-04-30T03:06:16.627Z,39.80
2019-04-30T03:07:16.449Z,40.10
2019-04-30T03:08:16.372Z,41.60
2019-04-30T03:09:16.290Z,40.60
2019-04-30T03:10:16.252Z,40.20
2019-04-30T03:11:16.118Z,39.60
2019-04-30T03:12:16.070Z,39.00
2019-04-30T03:13:15.950Z,38.90
2019-04-30T03:14:15.882Z,38.00
2019-04-30T03:15:15.871Z,39.20
2019-04-30T03:16:15.703Z,39.30
2019-04-30T03:17:15.623Z,39.00
2019-04-30T03:18:15.583Z,39.30
2019-04-30T03:19:15.485Z,38.40
2019-04-30T03:20:31.319Z,38.00
2019-04-30T03:21:15.402Z,39.10
2019-04-30T03:22:15.208Z,38.70
2019-04-30T03:23:15.222Z,39.40
2019-04-30T03:24:15.078Z,38.20
2019-04-30T03:25:14.967Z,38.30
2019-04-30T03:26:14.928Z,38.50
2019-04-30T03:27:14.789Z,39.10
2019-04-30T03:28:14.717Z,37.10
2019-04-30T03:29:14.665Z,37.50
2019-04-30T03:30:14.542Z,39.60
2019-04-30T03:31:14.465Z,39.30
2019-04-30T03:32:16.431Z,39.30
2019-04-30T03:33:14.299Z,38.30
2019-04-30T03:34:23.280Z,39.10
2019-04-30T03:35:14.163Z,38.50
2019-04-30T03:36:14.052Z,38.80
2019-04-30T03:37:13.964Z,38.20
2019-04-30T03:38:14.913Z,39.50
2019-04-30T03:39:13.809Z,39.80
2019-04-30T03:40:13.712Z,39.70
2019-04-30T03:41:13.709Z,40.20
2019-04-30T03:42:13.547Z,39.50
2019-04-30T03:43:13.473Z,40.20
2019-04-30T03:44:21.454Z,39.00
2019-04-30T03:45:13.302Z,40.90
2019-04-30T03:46:13.318Z,40.20
2019-04-30T03:47:13.134Z,40.10
2019-04-30T03:48:13.125Z,40.90
2019-04-30T03:49:13.623Z,42.60
2019-04-30T03:50:12.940Z,40.20
2019-04-30T03:51:12.811Z,42.00
2019-04-30T03:52:13.533Z,40.90
2019-04-30T03:53:12.636Z,40.60
2019-04-30T03:54:12.584Z,42.30
2019-04-30T03:55:12.473Z,40.20
2019-04-30T03:56:12.465Z,41.00
2019-04-30T03:57:12.305Z,39.80
2019-04-30T03:58:12.275Z,39.50
2019-04-30T03:59:12.151Z,41.20
2019-04-30T04:00:12.056Z,41.10
2019-04-30T04:01:11.987Z,41.00
2019-04-30T04:02:12.864Z,40.40
2019-04-30T04:03:11.810Z,40.90
2019-04-30T04:04:11.841Z,42.00
2019-04-30T04:05:11.649Z,40.40
2019-04-30T04:06:11.610Z,40.20
2019-04-30T04:07:11.483Z,40.90
2019-04-30T04:08:13.478Z,39.70
2019-04-30T04:09:11.331Z,40.60
2019-04-30T04:10:11.344Z,39.90
2019-04-30T04:11:11.149Z,39.60
2019-04-30T04:12:12.079Z,39.10
2019-04-30T04:13:10.985Z,40.40
2019-04-30T04:14:12.006Z,38.70
2019-04-30T04:15:10.816Z,39.00
2019-04-30T04:16:10.778Z,39.50
2019-04-30T04:17:10.646Z,39.40
2019-04-30T04:18:10.944Z,39.10
2019-04-30T04:19:10.487Z,38.90
2019-04-30T04:20:10.894Z,39.10
2019-04-30T04:21:16.314Z,38.60
2019-04-30T04:22:12.260Z,38.40
2019-04-30T04:23:10.148Z,38.70
2019-04-30T04:24:10.684Z,38.40
2019-04-30T04:25:13.212Z,40.00
2019-04-30T04:26:09.905Z,39.20
2019-04-30T04:27:09.915Z,38.50
2019-04-30T04:28:10.198Z,39.10
2019-04-30T04:29:12.409Z,37.80
2019-04-30T04:30:10.725Z,38.00
2019-04-30T04:31:09.599Z,37.20
2019-04-30T04:32:11.488Z,38.30
2019-04-30T04:33:10.248Z,35.10
2019-04-30T04:34:09.437Z,36.50
2019-04-30T04:35:09.900Z,36.30
2019-04-30T04:36:09.225Z,36.10
2019-04-30T04:37:10.105Z,36.70
2019-04-30T04:38:12.271Z,35.50
2019-04-30T04:39:09.812Z,37.50
2019-04-30T04:40:09.388Z,36.40
2019-04-30T04:41:10.372Z,36.80
2019-04-30T04:42:10.147Z,36.90
2019-04-30T04:43:10.351Z,35.90
2019-04-30T04:44:13.083Z,36.90
2019-04-30T04:45:09.860Z,35.60
2019-04-30T04:46:09.283Z,36.70
2019-04-30T04:47:11.657Z,36.70
2019-04-30T04:48:09.599Z,36.90
2019-04-30T04:49:09.000Z,35.40
2019-04-30T04:50:10.268Z,36.10
2019-04-30T04:51:19.831Z,36.90
2019-04-30T04:52:10.185Z,37.00
2019-04-30T04:53:08.935Z,35.10
2019-04-30T04:54:10.158Z,36.40
2019-04-30T04:55:09.776Z,36.80
2019-04-30T04:56:09.870Z,36.90
2019-04-30T04:57:14.973Z,36.60
2019-04-30T04:58:12.404Z,36.00
2019-04-30T04:59:07.270Z,36.60
2019-04-30T05:00:08.294Z,35.40
2019-04-30T05:01:08.665Z,35.20
2019-04-30T05:02:06.956Z,35.50
2019-04-30T05:03:06.851Z,34.80
2019-04-30T05:04:11.467Z,35.80
2019-04-30T05:05:06.804Z,35.20
2019-04-30T05:06:06.592Z,35.90
2019-04-30T05:07:06.499Z,33.70
2019-04-30T05:08:08.451Z,35.10
2019-04-30T05:09:06.333Z,34.10
2019-04-30T05:10:06.275Z,35.90
2019-04-30T05:11:06.194Z,35.40
2019-04-30T05:12:06.090Z,35.70
2019-04-30T05:13:06.210Z,36.40
2019-04-30T05:14:05.926Z,34.40
2019-04-30T05:15:06.049Z,35.60
2019-04-30T05:16:05.761Z,35.20
2019-04-30T05:17:05.827Z,34.90
2019-04-30T05:18:05.592Z,35.00
2019-04-30T05:19:05.635Z,34.90
2019-04-30T05:20:05.493Z,35.40
2019-04-30T05:21:05.405Z,36.60
2019-04-30T05:22:05.266Z,35.80
2019-04-30T05:23:05.247Z,35.60
2019-04-30T05:24:05.101Z,36.30
2019-04-30T05:25:05.023Z,36.00
2019-04-30T05:26:05.028Z,35.50
2019-04-30T05:27:04.849Z,36.20
2019-04-30T05:28:04.766Z,36.30
2019-04-30T05:29:04.752Z,35.10
2019-04-30T05:30:04.625Z,34.60
2019-04-30T05:31:04.514Z,35.90
2019-04-30T05:32:05.485Z,35.90
2019-04-30T05:33:04.353Z,36.50
2019-04-30T05:34:06.357Z,36.40
2019-04-30T05:35:09.487Z,35.10
2019-04-30T05:36:04.102Z,36.40
2019-04-30T05:37:04.039Z,36.40
2019-04-30T05:38:03.990Z,36.50
2019-04-30T05:39:03.855Z,36.60
2019-04-30T05:40:03.793Z,36.20
2019-04-30T05:41:03.815Z,36.20
2019-04-30T05:42:03.613Z,35.70
2019-04-30T05:43:03.529Z,36.50
2019-04-30T05:44:04.544Z,37.00
2019-04-30T05:45:03.380Z,36.80
2019-04-30T05:46:03.282Z,35.50
2019-04-30T05:47:03.240Z,36.70
2019-04-30T05:48:03.117Z,36.60
2019-04-30T05:49:03.144Z,35.80
2019-04-30T05:50:02.971Z,36.20
2019-04-30T05:51:02.870Z,36.10
2019-04-30T05:52:02.863Z,35.90
2019-04-30T05:53:02.702Z,38.40
2019-04-30T05:54:02.619Z,35.80
2019-04-30T05:55:02.627Z,35.40
2019-04-30T05:56:03.331Z,36.00
2019-04-30T05:57:02.371Z,35.30
2019-04-30T05:58:02.408Z,36.00
2019-04-30T05:59:02.207Z,35.70
2019-04-30T06:00:02.146Z,35.10
2019-04-30T06:01:02.226Z,35.00
2019-04-30T06:02:01.962Z,35.20
2019-04-30T06:03:02.034Z,36.50
2019-04-30T06:04:01.840Z,36.00
2019-04-30T06:05:01.919Z,35.90
2019-04-30T06:06:01.640Z,35.50
2019-04-30T06:07:01.649Z,34.90
2019-04-30T06:08:01.468Z,34.40
2019-04-30T06:09:06.666Z,34.20
2019-04-30T06:10:01.315Z,35.30
2019-04-30T06:11:01.266Z,34.70
2019-04-30T06:12:01.134Z,34.60
2019-04-30T06:13:01.077Z,34.30
2019-04-30T06:14:00.999Z,32.90
2019-04-30T06:15:00.919Z,34.40
2019-04-30T06:16:00.908Z,34.50
2019-04-30T06:17:00.728Z,35.40
2019-04-30T06:18:10.463Z,35.50
2019-04-30T06:19:00.563Z,33.30
2019-04-30T06:20:00.494Z,33.80
2019-04-30T06:21:00.526Z,34.00
2019-04-30T06:22:07.780Z,34.20
2019-04-30T06:23:00.266Z,35.10
2019-04-30T06:24:00.329Z,34.80
2019-04-30T06:25:00.087Z,34.60
2019-04-30T06:26:08.749Z,35.20
2019-04-30T06:26:59.938Z,36.80
2019-04-30T06:27:59.839Z,49.80
2019-04-30T06:28:59.954Z,41.50
2019-04-30T06:29:59.677Z,42.30
2019-04-30T06:30:59.761Z,35.60
2019-04-30T06:31:59.506Z,34.70
2019-04-30T06:32:59.578Z,35.40
2019-04-30T06:33:59.338Z,34.80
2019-04-30T06:34:59.447Z,34.40
2019-04-30T06:35:59.174Z,35.40
2019-04-30T06:36:59.589Z,34.50
2019-04-30T06:37:59.195Z,33.90
2019-04-30T06:38:59.061Z,34.10
2019-04-30T06:39:59.148Z,34.40
2019-04-30T06:40:58.941Z,34.10
2019-04-30T06:42:04.907Z,34.20
2019-04-30T06:43:00.670Z,33.60
2019-04-30T06:43:58.766Z,33.10
2019-04-30T06:44:59.142Z,33.60
2019-04-30T06:45:58.952Z,32.10
2019-04-30T06:46:58.846Z,32.00
2019-04-30T06:47:58.787Z,31.70
2019-04-30T06:48:59.485Z,31.80
2019-04-30T06:49:58.778Z,32.10
2019-04-30T06:50:59.238Z,30.40
2019-04-30T06:51:58.797Z,31.70
2019-04-30T06:52:59.439Z,31.70
2019-04-30T06:53:58.682Z,32.90
2019-04-30T06:54:59.565Z,32.40
2019-04-30T06:55:58.969Z,30.70
2019-04-30T06:56:59.565Z,31.60
2019-04-30T06:58:09.318Z,31.50
2019-04-30T06:58:58.924Z,30.40
2019-04-30T06:59:59.470Z,30.60
2019-04-30T07:00:59.425Z,31.00
2019-04-30T07:01:58.959Z,31.40
2019-04-30T07:02:59.015Z,31.70
2019-04-30T07:04:00.601Z,31.80
2019-04-30T07:04:58.695Z,29.50
2019-04-30T07:05:58.552Z,30.60
2019-04-30T07:06:56.676Z,30.20
2019-04-30T07:08:02.593Z,30.30
2019-04-30T07:08:59.516Z,30.40
2019-04-30T07:10:00.485Z,30.00
2019-04-30T07:11:03.931Z,30.30
2019-04-30T07:11:56.340Z,31.00
2019-04-30T07:12:56.356Z,30.50
2019-04-30T07:13:56.119Z,31.80
2019-04-30T07:14:56.054Z,30.80
2019-04-30T07:15:56.169Z,31.60
2019-04-30T07:16:55.946Z,31.50
2019-04-30T07:17:55.877Z,31.40
2019-04-30T07:18:55.725Z,30.30
2019-04-30T07:19:56.932Z,32.00
2019-04-30T07:20:55.563Z,30.60
2019-04-30T07:21:55.597Z,30.90
2019-04-30T07:23:00.765Z,31.60
2019-04-30T07:23:55.400Z,30.30
2019-04-30T07:24:55.264Z,30.80
2019-04-30T07:25:55.167Z,31.20
2019-04-30T07:27:01.034Z,29.80
2019-04-30T07:27:55.014Z,31.30
2019-04-30T07:28:55.541Z,30.50
2019-04-30T07:29:55.064Z,30.30
2019-04-30T07:31:07.617Z,29.70
2019-04-30T07:31:54.689Z,30.60
2019-04-30T07:32:54.643Z,30.20
2019-04-30T07:33:54.535Z,28.90
2019-04-30T07:34:54.484Z,31.20
2019-04-30T07:35:54.371Z,31.10
2019-04-30T07:37:10.857Z,32.10
2019-04-30T07:37:54.564Z,30.50
2019-04-30T07:38:56.601Z,31.30
2019-04-30T07:39:54.068Z,30.90
2019-04-30T07:40:54.090Z,33.30
2019-04-30T07:41:53.899Z,38.70
2019-04-30T07:42:53.820Z,33.80
2019-04-30T07:43:53.765Z,30.10
2019-04-30T07:44:53.658Z,30.20
2019-04-30T07:45:53.597Z,29.80
2019-04-30T07:46:53.517Z,28.10
2019-04-30T07:47:53.424Z,28.70
2019-04-30T07:48:53.347Z,28.70
2019-04-30T07:49:55.952Z,29.10
2019-04-30T07:50:53.205Z,27.90
2019-04-30T07:51:53.755Z,27.90
2019-04-30T07:53:04.896Z,27.90
2019-04-30T07:53:52.957Z,28.20
2019-04-30T07:54:52.876Z,28.60
2019-04-30T07:55:52.986Z,27.80
2019-04-30T07:56:52.755Z,27.70
2019-04-30T07:57:52.643Z,28.60
2019-04-30T07:58:52.765Z,26.60
2019-04-30T07:59:52.485Z,27.90
2019-04-30T08:00:56.172Z,28.40
2019-04-30T08:02:06.661Z,27.30
2019-04-30T08:02:52.251Z,32.20
2019-04-30T08:03:52.289Z,27.00
2019-04-30T08:04:52.191Z,42.50
2019-04-30T08:05:52.126Z,26.90
2019-04-30T08:06:51.979Z,27.40
2019-04-30T08:07:52.090Z,27.20
2019-04-30T08:08:57.064Z,27.70
2019-04-30T08:09:51.707Z,27.30
2019-04-30T08:10:51.648Z,27.50
2019-04-30T08:11:51.549Z,27.80
2019-04-30T08:12:51.857Z,27.10
2019-04-30T08:13:51.655Z,27.60
2019-04-30T08:14:51.320Z,27.30
2019-04-30T08:15:51.259Z,27.60
2019-04-30T08:16:51.247Z,26.10
2019-04-30T08:18:02.908Z,27.10
2019-04-30T08:18:51.054Z,26.50
2019-04-30T08:19:50.941Z,26.80
2019-04-30T08:20:50.910Z,26.40
2019-04-30T08:21:50.789Z,26.70
2019-04-30T08:22:50.718Z,26.50
2019-04-30T08:23:50.678Z,26.10
2019-04-30T08:24:50.570Z,27.20
2019-04-30T08:25:50.507Z,26.70
2019-04-30T08:26:51.418Z,27.50
2019-04-30T08:27:50.345Z,27.00
2019-04-30T08:28:50.265Z,27.50
2019-04-30T08:29:50.311Z,25.80
2019-04-30T08:30:50.127Z,26.10
2019-04-30T08:31:50.041Z,27.10
2019-04-30T08:32:51.071Z,25.50
2019-04-30T08:33:49.890Z,24.70
2019-04-30T08:34:50.203Z,26.00
2019-04-30T08:35:50.076Z,25.70
2019-04-30T08:36:49.753Z,26.10
2019-04-30T08:37:49.837Z,28.40
2019-04-30T08:38:49.674Z,37.60
2019-04-30T08:39:50.581Z,28.30
2019-04-30T08:40:56.138Z,29.50
2019-04-30T08:41:49.385Z,34.40
2019-04-30T08:42:49.702Z,26.20
2019-04-30T08:43:49.682Z,25.20
2019-04-30T08:44:49.213Z,25.00
2019-04-30T08:45:48.997Z,24.60
2019-04-30T08:46:49.301Z,24.40
2019-04-30T08:47:49.422Z,25.20
2019-04-30T08:48:51.601Z,25.10
2019-04-30T08:49:49.987Z,25.60
2019-04-30T08:50:49.412Z,25.40
2019-04-30T08:51:49.224Z,25.90
2019-04-30T08:52:49.905Z,26.20
2019-04-30T08:53:48.740Z,25.00
2019-04-30T08:54:49.615Z,24.50
2019-04-30T08:55:49.194Z,24.40
2019-04-30T08:56:49.897Z,24.40
2019-04-30T08:57:50.059Z,23.50
2019-04-30T08:58:50.130Z,23.40
2019-04-30T08:59:49.505Z,23.00
2019-04-30T09:00:48.549Z,22.00
2019-04-30T09:01:48.739Z,22.90
2019-04-30T09:02:49.318Z,21.90
2019-04-30T09:03:50.895Z,22.20
2019-04-30T09:04:49.295Z,22.10
2019-04-30T09:05:47.491Z,21.20
2019-04-30T09:06:49.032Z,21.90
2019-04-30T09:07:48.655Z,22.50
2019-04-30T09:08:49.004Z,21.50
2019-04-30T09:09:48.866Z,22.60
2019-04-30T09:10:48.925Z,21.50
2019-04-30T09:11:53.072Z,22.50
2019-04-30T09:12:47.113Z,21.80
2019-04-30T09:13:48.669Z,23.20
2019-04-30T09:14:48.877Z,22.10
2019-04-30T09:15:46.772Z,22.00
2019-04-30T09:16:46.764Z,22.60
2019-04-30T09:17:58.873Z,22.80
2019-04-30T09:18:46.742Z,24.80
2019-04-30T09:19:46.471Z,25.30
2019-04-30T09:20:46.787Z,25.30
2019-04-30T09:21:46.335Z,25.20
2019-04-30T09:22:46.361Z,26.00
2019-04-30T09:23:51.897Z,25.60
2019-04-30T09:24:46.169Z,25.10
2019-04-30T09:25:46.061Z,24.20
2019-04-30T09:26:45.976Z,21.60
2019-04-30T09:27:45.925Z,21.50
2019-04-30T09:28:45.835Z,33.00
2019-04-30T09:29:45.768Z,25.00
2019-04-30T09:30:45.719Z,23.50
2019-04-30T09:31:45.628Z,28.70
2019-04-30T09:32:45.559Z,24.50
2019-04-30T09:33:45.617Z,25.30
2019-04-30T09:34:45.409Z,24.70
2019-04-30T09:35:45.464Z,24.90
2019-04-30T09:36:45.269Z,25.70
2019-04-30T09:37:45.193Z,25.20
2019-04-30T09:38:45.237Z,23.90
2019-04-30T09:39:45.057Z,24.40
2019-04-30T09:40:44.991Z,24.10
2019-04-30T09:41:45.055Z,23.20
2019-04-30T09:42:44.837Z,23.90
2019-04-30T09:43:44.861Z,23.10
2019-04-30T09:44:44.697Z,22.90
2019-04-30T09:45:44.645Z,24.10
2019-04-30T09:46:44.567Z,21.80
2019-04-30T09:47:44.526Z,22.10
2019-04-30T09:48:44.413Z,23.40
2019-04-30T09:49:44.439Z,23.70
2019-04-30T09:50:44.479Z,22.90
2019-04-30T09:51:44.199Z,24.90
2019-04-30T09:52:44.365Z,24.20
2019-04-30T09:53:55.533Z,24.70
2019-04-30T09:54:43.976Z,24.30
2019-04-30T09:55:43.921Z,23.90
2019-04-30T09:56:43.836Z,22.90
2019-04-30T09:57:43.927Z,24.80
2019-04-30T09:58:43.683Z,24.20
2019-04-30T09:59:43.736Z,23.70
2019-04-30T10:00:43.552Z,23.80
2019-04-30T10:01:43.465Z,23.90
2019-04-30T10:02:43.550Z,23.50
2019-04-30T10:03:43.669Z,22.10
2019-04-30T10:04:43.604Z,22.10
2019-04-30T10:05:43.194Z,22.70
2019-04-30T10:06:43.100Z,21.80
2019-04-30T10:07:43.024Z,23.40
2019-04-30T10:08:48.293Z,23.70
2019-04-30T10:09:42.878Z,23.50
2019-04-30T10:10:43.395Z,22.20
2019-04-30T10:11:42.792Z,22.70
2019-04-30T10:12:42.663Z,23.50
2019-04-30T10:13:42.805Z,23.00
2019-04-30T10:14:42.523Z,24.00
2019-04-30T10:15:42.665Z,22.40
2019-04-30T10:16:42.376Z,21.50
2019-04-30T10:17:42.480Z,21.20
2019-04-30T10:18:42.242Z,22.50
2019-04-30T10:19:42.289Z,21.80
2019-04-30T10:20:42.110Z,21.20
2019-04-30T10:21:42.038Z,22.20
2019-04-30T10:22:41.951Z,37.10
2019-04-30T10:23:41.883Z,29.10
2019-04-30T10:24:41.855Z,26.10
2019-04-30T10:25:41.757Z,22.60
2019-04-30T10:26:41.684Z,21.50
2019-04-30T10:27:41.694Z,22.10
2019-04-30T10:28:37.815Z,20.10
2019-04-30T10:29:39.540Z,21.00
2019-04-30T10:30:37.624Z,21.50
2019-04-30T10:31:39.024Z,21.10
2019-04-30T10:32:37.403Z,20.30
2019-04-30T10:33:38.634Z,20.30
2019-04-30T10:34:37.209Z,20.30
2019-04-30T10:35:38.515Z,20.20
2019-04-30T10:36:41.170Z,18.80
2019-04-30T10:37:38.715Z,19.60
2019-04-30T10:38:36.905Z,19.00
2019-04-30T10:39:38.941Z,19.80
2019-04-30T10:40:38.803Z,19.60
2019-04-30T10:41:36.694Z,18.70
2019-04-30T10:42:36.648Z,18.90
2019-04-30T10:43:36.553Z,20.00
2019-04-30T10:44:36.661Z,19.30
2019-04-30T10:45:38.635Z,18.40
2019-04-30T10:46:36.473Z,18.30
2019-04-30T10:47:36.277Z,17.50
2019-04-30T10:48:36.277Z,19.40
2019-04-30T10:49:36.138Z,17.60
2019-04-30T10:50:36.117Z,17.40
2019-04-30T10:51:36.012Z,18.10
2019-04-30T10:52:36.102Z,20.10
2019-04-30T10:53:35.870Z,19.40
2019-04-30T10:54:35.910Z,19.50
2019-04-30T10:55:35.742Z,19.30
2019-04-30T10:56:35.721Z,20.10
2019-04-30T10:57:35.594Z,20.90
2019-04-30T10:58:35.552Z,19.70
2019-04-30T10:59:35.530Z,26.40
2019-04-30T11:00:35.396Z,101.70
2019-04-30T11:01:35.317Z,21.50
2019-04-30T11:02:35.415Z,28.90
2019-04-30T11:03:35.174Z,20.40
2019-04-30T11:04:35.158Z,18.50
2019-04-30T11:05:35.162Z,17.20
2019-04-30T11:06:35.245Z,17.00
2019-04-30T11:07:34.892Z,17.10
2019-04-30T11:08:34.821Z,17.20
2019-04-30T11:09:35.879Z,16.90
2019-04-30T11:10:34.710Z,16.50
2019-04-30T11:11:34.612Z,16.40
2019-04-30T11:12:34.592Z,17.20
2019-04-30T11:13:34.475Z,19.90
2019-04-30T11:14:34.476Z,18.50
2019-04-30T11:15:34.333Z,17.00
2019-04-30T11:16:34.520Z,17.90
2019-04-30T11:17:34.364Z,17.20
2019-04-30T11:18:34.305Z,16.90
2019-04-30T11:19:34.187Z,17.60
2019-04-30T11:20:34.283Z,16.30
2019-04-30T11:21:34.124Z,16.80
2019-04-30T11:22:33.999Z,16.10
2019-04-30T11:23:33.949Z,15.20
2019-04-30T11:24:38.078Z,15.20
2019-04-30T11:25:34.573Z,22.70
2019-04-30T11:26:34.174Z,17.40
2019-04-30T11:27:34.168Z,17.10
2019-04-30T11:28:33.606Z,17.60
2019-04-30T11:29:33.516Z,16.40
2019-04-30T11:30:33.678Z,15.50
2019-04-30T11:31:33.475Z,14.70
2019-04-30T11:32:33.314Z,15.30
2019-04-30T11:33:33.580Z,16.40
2019-04-30T11:34:33.035Z,16.00
2019-04-30T11:35:33.188Z,16.60
2019-04-30T11:36:32.914Z,17.40
2019-04-30T11:37:32.828Z,16.50
2019-04-30T11:38:32.936Z,15.90
2019-04-30T11:39:32.687Z,22.80
2019-04-30T11:40:37.205Z,15.60
2019-04-30T11:41:33.398Z,14.20
2019-04-30T11:42:32.491Z,16.50
2019-04-30T11:43:32.425Z,16.70
2019-04-30T11:44:32.644Z,17.80
2019-04-30T11:45:32.276Z,19.40
2019-04-30T11:46:32.481Z,17.40
2019-04-30T11:47:32.141Z,16.10
2019-04-30T11:48:32.257Z,16.00
2019-04-30T11:49:32.000Z,15.50
2019-04-30T11:50:32.066Z,16.50
2019-04-30T11:51:31.877Z,18.40
2019-04-30T11:52:31.876Z,19.00
2019-04-30T11:53:31.727Z,17.50
2019-04-30T11:54:31.888Z,18.40
2019-04-30T11:55:31.588Z,17.80
2019-04-30T11:56:31.632Z,17.70
2019-04-30T11:57:31.454Z,18.90
2019-04-30T11:58:31.419Z,17.70
2019-04-30T11:59:31.315Z,18.50
2019-04-30T12:00:31.431Z,19.10
2019-04-30T12:01:31.188Z,18.60
2019-04-30T12:02:39.288Z,18.80
2019-04-30T12:03:31.037Z,18.90
2019-04-30T12:04:31.140Z,18.50
2019-04-30T12:05:30.937Z,19.70
2019-04-30T12:06:31.003Z,18.30
2019-04-30T12:07:30.766Z,18.60
2019-04-30T12:08:30.892Z,17.30
2019-04-30T12:09:30.624Z,17.00
2019-04-30T12:10:30.681Z,17.80
2019-04-30T12:11:30.496Z,17.20
2019-04-30T12:12:30.415Z,17.00
2019-04-30T12:13:30.583Z,16.70
2019-04-30T12:14:30.287Z,16.70
2019-04-30T12:15:30.387Z,16.20
2019-04-30T12:16:30.435Z,16.30
2019-04-30T12:17:30.066Z,17.30
2019-04-30T12:18:30.001Z,16.10
2019-04-30T12:19:30.221Z,16.10
2019-04-30T12:20:29.878Z,16.10
2019-04-30T12:21:29.813Z,15.50
2019-04-30T12:22:30.036Z,16.70
2019-04-30T12:23:29.655Z,16.50
2019-04-30T12:24:30.433Z,17.50
2019-04-30T12:25:30.438Z,17.10
2019-04-30T12:26:29.472Z,16.90
2019-04-30T12:27:29.382Z,17.00
2019-04-30T12:28:29.745Z,17.90
2019-04-30T12:29:29.296Z,18.20
2019-04-30T12:30:29.176Z,18.00
2019-04-30T12:31:29.733Z,16.90
2019-04-30T12:32:29.841Z,16.60
2019-04-30T12:33:28.978Z,16.40
2019-04-30T12:34:29.108Z,17.80
2019-04-30T12:35:28.842Z,16.40
2019-04-30T12:36:29.021Z,16.60
2019-04-30T12:37:29.051Z,16.00
2019-04-30T12:38:29.914Z,14.80
2019-04-30T12:39:30.097Z,13.80
2019-04-30T12:40:30.033Z,13.60
2019-04-30T12:41:28.433Z,12.70
2019-04-30T12:42:28.734Z,12.80
2019-04-30T12:43:28.312Z,12.70
2019-04-30T12:44:28.239Z,16.00
2019-04-30T12:45:29.419Z,16.30
2019-04-30T12:46:28.919Z,16.20
2019-04-30T12:47:29.560Z,14.10
2019-04-30T12:48:29.565Z,15.70
2019-04-30T12:49:28.816Z,14.50
2019-04-30T12:50:29.177Z,15.50
2019-04-30T12:51:27.721Z,15.20